Aviation Digital Data Service (ADDS)

Output produced by METARs form (0803 UTC 23 April 2017)
found at http://www.aviationweather.gov/adds/metars/
 
KCXY 230756Z AUTO 00000KT 10SM CLR 06/02 A3008 RMK AO2 SLP189 T00610022
KCXY 230656Z AUTO 01003KT 10SM CLR 09/01 A3007 RMK AO2 SLP186 T00940011
KCXY 230556Z AUTO 36005KT 10SM CLR 10/01 A3008 RMK AO2 SLP189 T01000011 10122 20100 51015
KCXY 230456Z AUTO 36006KT 10SM CLR 10/01 A3007 RMK AO2 SLP186 T01000011 401610100
KCXY 230356Z AUTO 03003KT 10SM CLR 11/02 A3006 RMK AO2 SLP181 T01060022
KCXY 230256Z AUTO 35004KT 10SM CLR 12/03 A3004 RMK AO2 SLP173 T01170028 51016
KCXY 230156Z AUTO 01004KT 10SM CLR 12/03 A3003 RMK AO2 SLP170 T01220028
KCXY 230056Z 00000KT 10SM CLR 12/07 A3000 RMK AO2 SLP161 T01170072
KCXY 222356Z 28004KT 10SM CLR 12/07 A2999 RMK AO2 SLP157 60001 T01170067 10128 20117 51007
KCXY 222256Z 00000KT 10SM BKN110 12/07 A2998 RMK AO2 SLP154 T01220072
KCXY 222156Z 00000KT 10SM BKN080 OVC095 13/07 A2999 RMK AO2 SLP156 T01280067
KCXY 222056Z 36003KT 10SM FEW041 BKN100 13/07 A2997 RMK AO2 SLP150 60001 T01280067 58002
KCXY 221956Z 35005KT 10SM OVC033 12/08 A2999 RMK AO2 RAB1859E45 SLP156 P0001 T01220078
KCXY 221945Z 36004KT 10SM OVC031 12/07 A2999 RMK AO2 RAB1859E45 P0001 T01220072
KCXY 221909Z 32005KT 10SM -RA SCT017 BKN025 OVC031 12/08 A2998 RMK AO2 RAB1859 P0001 T01220083
KCXY 221856Z 35006KT 10SM FEW016 FEW024 OVC031 12/08 A2998 RMK AO2 RAE52 SLP152 P0000 T01220083
KCXY 221756Z 27003KT 10SM -RA BKN033 OVC060 12/08 A2998 RMK AO2 SLP152 P0002 60006 T01170078 10139 20117 53004
KCXY 221656Z 34006KT 6SM -RA FEW060 OVC075 12/07 A2997 RMK AO2 SLP149 P0004 T01170072
KCXY 221556Z 33005KT 10SM -RA OVC070 13/06 A2996 RMK AO2 RAB36 SLP145 P0000 T01330056
KCXY 221456Z 35007KT 10SM OVC065 13/04 A2996 RMK AO2 RAE06 SLP148 P0000 60000 T01330044 51007
KCXY 221356Z 34006KT 10SM -RA OVC065 13/06 A2996 RMK AO2 RAB29 SLP147 P0000 T01330056
KCXY 221256Z 35008KT 10SM OVC070 13/05 A2995 RMK AO2 SLP142 T01330050
KCXY 221156Z 34005KT 10SM BKN070 OVC095 14/06 A2994 RMK AO2 SLP139 60000 T01390056 10156 20139 53015
KCXY 221056Z 34005KT 10SM SCT075 OVC110 14/06 A2991 RMK AO2 SLP130 T01390061
KCXY 220956Z AUTO 34006KT 10SM BKN033 BKN070 OVC100 14/07 A2992 RMK AO2 RAB37E50 SLP132 P0000 T01390067
KCXY 220943Z AUTO 33007KT 10SM -RA OVC031 14/07 A2991 RMK AO2 RAB37 P0000 T01440072
KCXY 220856Z AUTO 34005KT 10SM OVC025 14/07 A2990 RMK AO2 SLP124 T01440072 57001
KCXY 220756Z AUTO 36003KT 4SM HZ OVC020 15/12 A2990 RMK AO2 SLP126 T01500117
KCXY 220729Z AUTO 00000KT 4SM HZ SCT014 BKN025 BKN110 14/12 A2990 RMK AO2 T01440117
KCXY 220721Z AUTO VRB03KT 4SM HZ SCT015 SCT025 BKN050 14/12 A2990 RMK AO2 T01440117
KCXY 220706Z AUTO 04004KT 4SM HZ BKN015 BKN050 14/12 A2989 RMK AO2 T01440117
KCXY 220656Z AUTO 01004KT 5SM HZ SCT016 BKN050 BKN065 15/12 A2990 RMK AO2 SLP124 T01500117
KCXY 220605Z AUTO 00000KT 5SM HZ BKN010 OVC110 15/12 A2990 RMK AO2 T01500122
KCXY 220556Z AUTO 03004KT 5SM HZ BKN009 OVC110 16/12 A2990 RMK AO2 SLP126 T01560122 10178 20150 50002
KCXY 220532Z AUTO 09003KT 5SM HZ SCT009 OVC110 16/13 A2990 RMK AO2 T01560128
KCXY 220517Z AUTO 07003KT 5SM HZ BKN009 OVC110 16/13 A2990 RMK AO2 T01560128
KCXY 220456Z AUTO 00000KT 6SM HZ OVC010 16/13 A2991 RMK AO2 SLP128 T01610128 402110144
KCXY 220424Z AUTO 00000KT 5SM HZ BKN010 OVC110 16/13 A2991 RMK AO2 T01560128
KCXY 220415Z AUTO 00000KT 5SM HZ SCT009 OVC110 16/13 A2990 RMK AO2 T01560128
KCXY 220356Z AUTO 00000KT 5SM HZ OVC110 16/13 A2990 RMK AO2 SLP124 T01610128
KCXY 220256Z AUTO 12004KT 6SM BR FEW013 BKN120 16/13 A2990 RMK AO2 SLP124 T01560133 51016
KCXY 220156Z AUTO 10004KT 7SM CLR 16/13 A2988 RMK AO2 SLP120 T01610128
KCXY 220131Z AUTO 08004KT 7SM SCT013 16/13 A2988 RMK AO2 T01610128
KCXY 220118Z AUTO 08004KT 7SM BKN013 OVC075 17/13 A2988 RMK AO2 T01670133
KCXY 220056Z 10004KT 7SM SCT012 OVC075 17/13 A2987 RMK AO2 SLP116 T01720133
KCXY 220030Z 11004KT 7SM BKN013 17/14 A2987 RMK AO2 T01720139
KCXY 212356Z 08007KT 6SM HZ FEW075 FEW090 18/14 A2985 RMK AO2 SLP108 T01780144 10211 20178 53014
KCXY 212256Z 08007KT 6SM HZ SCT070 19/14 A2983 RMK AO2 LTG DSNT S SLP101 T01940144
KCXY 212156Z 09007KT 6SM HZ SCT055 SCT065 20/15 A2982 RMK AO2 TSE10 SLP097 T02000150
KCXY 212143Z 07007KT 6SM HZ FEW050 SCT065 20/15 A2982 RMK AO2 LTG DSNT E AND SE TSE10 T02000150
KCXY 212123Z 08008KT 6SM VCTS HZ FEW037 SCT046 BKN065 19/15 A2981 RMK AO2 TSE10 T01940150
KCXY 212110Z 07009KT 7SM HZ SCT015 BKN044 OVC090 19/14 A2981 RMK AO2 TSE10 T01940144
KCXY 212056Z 06010KT 6SM TS HZ OVC015 19/14 A2981 RMK AO2 TSB55 SLP095 T01940144 55014
KCXY 212025Z 07007KT 6SM HZ BKN016 21/16 A2981 RMK AO2 T02060156